Aviation Digital Data Service (ADDS)

Output produced by METARs form (0148 UTC 29 November 2020)
found at http://www.aviationweather.gov/metar/data/
 
METAR text: CYLW 290100Z AUTO VRB04KT 9SM BKN070 01/M00 A3037 RMK SLP305
Conditions at: CYLW (KELOWNA APT , BC, CA) observed 0100 UTC 29 November 2020
Temperature: 1.0°C (34°F)
Dewpoint: 0.0°C (32°F) [RH = 93%]
Pressure (altimeter): 30.37 inches Hg (1028.5 mb)
[Sea-level pressure: 1030.5 mb]
Winds: variable direction winds at 5 MPH (4 knots; 2.1 m/s)
Visibility: 9 miles (14 km)
Ceiling: 7000 feet AGL
Clouds: broken clouds at 7000 feet AGL
Weather: no significant weather observed at this time

METAR text: CYLW 290000Z AUTO 36004KT 9SM SCT075 04/02 A3036 RMK SLP296
Conditions at: CYLW (KELOWNA APT , BC, CA) observed 0000 UTC 29 November 2020
Temperature: 4.0°C (39°F)
Dewpoint: 2.0°C (36°F) [RH = 87%]
Pressure (altimeter): 30.36 inches Hg (1028.2 mb)
[Sea-level pressure: 1029.6 mb]
Winds: from the N (360 degrees) at 5 MPH (4 knots; 2.1 m/s)
Visibility: 9 miles (14 km)
Ceiling: at least 12,000 feet AGL
Clouds: scattered clouds at 7500 feet AGL
Weather: no significant weather observed at this time

METAR text: CYLW 282300Z AUTO 33005KT 9SM SCT055 07/02 A3032 RMK SLP287
Conditions at: CYLW (KELOWNA APT , BC, CA) observed 2300 UTC 28 November 2020
Temperature: 7.0°C (45°F)
Dewpoint: 2.0°C (36°F) [RH = 70%]
Pressure (altimeter): 30.32 inches Hg (1026.8 mb)
[Sea-level pressure: 1028.7 mb]
Winds: from the NNW (330 degrees) at 6 MPH (5 knots; 2.6 m/s)
Visibility: 9 miles (14 km)
Ceiling: at least 12,000 feet AGL
Clouds: scattered clouds at 5500 feet AGL
Weather: no significant weather observed at this time

METAR text: CYLW 282200Z AUTO 33006KT 320V030 9SM OVC060 07/02 A3032 RMK SLP287
Conditions at: CYLW (KELOWNA APT , BC, CA) observed 2200 UTC 28 November 2020
Temperature: 7.0°C (45°F)
Dewpoint: 2.0°C (36°F) [RH = 70%]
Pressure (altimeter): 30.32 inches Hg (1026.8 mb)
[Sea-level pressure: 1028.7 mb]
Winds: from the NNW (330 degrees) at 7 MPH (6 knots; 3.1 m/s)
Visibility: 9 miles (14 km)
Ceiling: 6000 feet AGL
Clouds: overcast cloud deck at 6000 feet AGL
Weather: no significant weather observed at this time

METAR text: CYLW 282100Z AUTO 06003KT 040V140 9SM OVC065 07/02 A3031 RMK SLP281
Conditions at: CYLW (KELOWNA APT , BC, CA) observed 2100 UTC 28 November 2020
Temperature: 7.0°C (45°F)
Dewpoint: 2.0°C (36°F) [RH = 70%]
Pressure (altimeter): 30.31 inches Hg (1026.5 mb)
[Sea-level pressure: 1028.1 mb]
Winds: from the ENE (60 degrees) at 3 MPH (3 knots; 1.5 m/s)
Visibility: 9 miles (14 km)
Ceiling: 6500 feet AGL
Clouds: overcast cloud deck at 6500 feet AGL
Weather: no significant weather observed at this time

METAR text: CYLW 282000Z AUTO 00000KT 9SM BKN055 05/02 A3030 RMK SLP281
Conditions at: CYLW (KELOWNA APT , BC, CA) observed 2000 UTC 28 November 2020
Temperature: 5.0°C (41°F)
Dewpoint: 2.0°C (36°F) [RH = 81%]
Pressure (altimeter): 30.30 inches Hg (1026.2 mb)
[Sea-level pressure: 1028.1 mb]
Winds: calm
Visibility: 9 miles (14 km)
Ceiling: 5500 feet AGL
Clouds: broken clouds at 5500 feet AGL
Weather: no significant weather observed at this time

METAR text: CYLW 281900Z AUTO VRB02KT 9SM OVC055 04/01 A3030 RMK SLP277
Conditions at: CYLW (KELOWNA APT , BC, CA) observed 1900 UTC 28 November 2020
Temperature: 4.0°C (39°F)
Dewpoint: 1.0°C (34°F) [RH = 81%]
Pressure (altimeter): 30.30 inches Hg (1026.2 mb)
[Sea-level pressure: 1027.7 mb]
Winds: variable direction winds at 2 MPH (2 knots; 1.0 m/s)
Visibility: 9 miles (14 km)
Ceiling: 5500 feet AGL
Clouds: overcast cloud deck at 5500 feet AGL
Weather: no significant weather observed at this time

METAR text: CYLW 281817Z AUTO 00000KT 9SM FEW044 OVC060 03/02 A3030 RMK SLP279
Conditions at: CYLW (KELOWNA APT , BC, CA) observed 1817 UTC 28 November 2020
Temperature: 3.0°C (37°F)
Dewpoint: 2.0°C (36°F) [RH = 93%]
Pressure (altimeter): 30.30 inches Hg (1026.2 mb)
[Sea-level pressure: 1027.9 mb]
Winds: calm
Visibility: 9 miles (14 km)
Ceiling: 6000 feet AGL
Clouds: few clouds at 4400 feet AGL
overcast cloud deck at 6000 feet AGL
Weather: no significant weather observed at this time

METAR text: CYLW 281800Z AUTO 00000KT 9SM -RA BKN041 OVC060 03/02 A3029 RMK SLP276
Conditions at: CYLW (KELOWNA APT , BC, CA) observed 1800 UTC 28 November 2020
Temperature: 3.0°C (37°F)
Dewpoint: 2.0°C (36°F) [RH = 93%]
Pressure (altimeter): 30.29 inches Hg (1025.8 mb)
[Sea-level pressure: 1027.6 mb]
Winds: calm
Visibility: 9 miles (14 km)
Ceiling: 4100 feet AGL
Clouds: broken clouds at 4100 feet AGL
overcast cloud deck at 6000 feet AGL
Weather: -RA  (light rain)

METAR text: CYLW 281739Z AUTO VRB02KT 9SM -RA OVC037 03/02 A3029 RMK SLP274
Conditions at: CYLW (KELOWNA APT , BC, CA) observed 1739 UTC 28 November 2020
Temperature: 3.0°C (37°F)
Dewpoint: 2.0°C (36°F) [RH = 93%]
Pressure (altimeter): 30.29 inches Hg (1025.8 mb)
[Sea-level pressure: 1027.4 mb]
Winds: variable direction winds at 2 MPH (2 knots; 1.0 m/s)
Visibility: 9 miles (14 km)
Ceiling: 3700 feet AGL
Clouds: overcast cloud deck at 3700 feet AGL
Weather: -RA  (light rain)

METAR text: CYLW 281737Z AUTO 00000KT 9SM OVC037 03/02 A3029 RMK SLP274
Conditions at: CYLW (KELOWNA APT , BC, CA) observed 1737 UTC 28 November 2020
Temperature: 3.0°C (37°F)
Dewpoint: 2.0°C (36°F) [RH = 93%]
Pressure (altimeter): 30.29 inches Hg (1025.8 mb)
[Sea-level pressure: 1027.4 mb]
Winds: calm
Visibility: 9 miles (14 km)
Ceiling: 3700 feet AGL
Clouds: overcast cloud deck at 3700 feet AGL
Weather: no significant weather observed at this time

METAR text: CYLW 281710Z AUTO VRB02KT 9SM -RA BKN025 BKN033 OVC040 03/01 A3027 RMK SLP267
Conditions at: CYLW (KELOWNA APT , BC, CA) observed 1710 UTC 28 November 2020
Temperature: 3.0°C (37°F)
Dewpoint: 1.0°C (34°F) [RH = 87%]
Pressure (altimeter): 30.27 inches Hg (1025.1 mb)
[Sea-level pressure: 1026.7 mb]
Winds: variable direction winds at 2 MPH (2 knots; 1.0 m/s)
Visibility: 9 miles (14 km)
Ceiling: 2500 feet AGL
Clouds: broken clouds at 2500 feet AGL
broken clouds at 3300 feet AGL
overcast cloud deck at 4000 feet AGL
Weather: -RA  (light rain)

METAR text: CYLW 281700Z AUTO 07003KT 9SM BKN025 BKN041 BKN050 03/01 A3027 RMK SLP266
Conditions at: CYLW (KELOWNA APT , BC, CA) observed 1700 UTC 28 November 2020
Temperature: 3.0°C (37°F)
Dewpoint: 1.0°C (34°F) [RH = 87%]
Pressure (altimeter): 30.27 inches Hg (1025.1 mb)
[Sea-level pressure: 1026.6 mb]
Winds: from the ENE (70 degrees) at 3 MPH (3 knots; 1.5 m/s)
Visibility: 9 miles (14 km)
Ceiling: 2500 feet AGL
Clouds: broken clouds at 2500 feet AGL
broken clouds at 4100 feet AGL
broken clouds at 5000 feet AGL
Weather: no significant weather observed at this time

METAR text: CYLW 281646Z AUTO 07004KT 9SM SCT025 SCT038 BKN050 BKN065 02/01 A3025 RMK PRESRR SLP263
Conditions at: CYLW (KELOWNA APT , BC, CA) observed 1646 UTC 28 November 2020
Temperature: 2.0°C (36°F)
Dewpoint: 1.0°C (34°F) [RH = 93%]
Pressure (altimeter): 30.25 inches Hg (1024.5 mb)
[Sea-level pressure: 1026.3 mb]
Winds: from the ENE (70 degrees) at 5 MPH (4 knots; 2.1 m/s)
Visibility: 9 miles (14 km)
Ceiling: 5000 feet AGL
Clouds: scattered clouds at 2500 feet AGL
scattered clouds at 3800 feet AGL
broken clouds at 5000 feet AGL
broken clouds at 6500 feet AGL
Weather: no significant weather observed at this time

METAR text: CYLW 281627Z AUTO 00000KT 9SM -RA FEW024 BKN040 BKN055 OVC093 01/M00 A3023 RMK PRESRR SLP257
Conditions at: CYLW (KELOWNA APT , BC, CA) observed 1627 UTC 28 November 2020
Temperature: 1.0°C (34°F)
Dewpoint: 0.0°C (32°F) [RH = 93%]
Pressure (altimeter): 30.23 inches Hg (1023.8 mb)
[Sea-level pressure: 1025.7 mb]
Winds: calm
Visibility: 9 miles (14 km)
Ceiling: 4000 feet AGL
Clouds: few clouds at 2400 feet AGL
broken clouds at 4000 feet AGL
broken clouds at 5500 feet AGL
overcast cloud deck at 9300 feet AGL
Weather: -RA  (light rain)

METAR text: CYLW 281612Z AUTO 00000KT 9SM FEW035 BKN044 BKN065 OVC084 01/M00 A3022 RMK SLP251
Conditions at: CYLW (KELOWNA APT , BC, CA) observed 1612 UTC 28 November 2020
Temperature: 1.0°C (34°F)
Dewpoint: 0.0°C (32°F) [RH = 93%]
Pressure (altimeter): 30.22 inches Hg (1023.5 mb)
[Sea-level pressure: 1025.1 mb]
Winds: calm
Visibility: 9 miles (14 km)
Ceiling: 4400 feet AGL
Clouds: few clouds at 3500 feet AGL
broken clouds at 4400 feet AGL
broken clouds at 6500 feet AGL
overcast cloud deck at 8400 feet AGL
Weather: no significant weather observed at this time

METAR text: CYLW 281600Z AUTO VRB02KT 9SM -RA FEW041 BKN048 BKN070 OVC081 01/M00 A3021 RMK SLP249
Conditions at: CYLW (KELOWNA APT , BC, CA) observed 1600 UTC 28 November 2020
Temperature: 1.0°C (34°F)
Dewpoint: 0.0°C (32°F) [RH = 93%]
Pressure (altimeter): 30.21 inches Hg (1023.1 mb)
[Sea-level pressure: 1024.9 mb]
Winds: variable direction winds at 2 MPH (2 knots; 1.0 m/s)
Visibility: 9 miles (14 km)
Ceiling: 4800 feet AGL
Clouds: few clouds at 4100 feet AGL
broken clouds at 4800 feet AGL
broken clouds at 7000 feet AGL
overcast cloud deck at 8100 feet AGL
Weather: -RA  (light rain)

METAR text: CYLW 281558Z AUTO VRB02KT 9SM -RA BKN046 OVC075 00/M00 A3021 RMK SLP249
Conditions at: CYLW (KELOWNA APT , BC, CA) observed 1558 UTC 28 November 2020
Temperature: 0.0°C (32°F)
Dewpoint: 0.0°C (32°F) [RH = 100%]
Pressure (altimeter): 30.21 inches Hg (1023.1 mb)
[Sea-level pressure: 1024.9 mb]
Winds: variable direction winds at 2 MPH (2 knots; 1.0 m/s)
Visibility: 9 miles (14 km)
Ceiling: 4600 feet AGL
Clouds: broken clouds at 4600 feet AGL
overcast cloud deck at 7500 feet AGL
Weather: -RA  (light rain)

METAR text: CYLW 281500Z AUTO 36004KT 9SM SCT050 01/M01 A3016 RMK SLP232
Conditions at: CYLW (KELOWNA APT , BC, CA) observed 1500 UTC 28 November 2020
Temperature: 1.0°C (34°F)
Dewpoint: -1.0°C (30°F) [RH = 86%]
Pressure (altimeter): 30.16 inches Hg (1021.4 mb)
[Sea-level pressure: 1023.2 mb]
Winds: from the N (360 degrees) at 5 MPH (4 knots; 2.1 m/s)
Visibility: 9 miles (14 km)
Ceiling: at least 12,000 feet AGL
Clouds: scattered clouds at 5000 feet AGL
Weather: no significant weather observed at this time

METAR text: CYLW 281400Z AUTO 11005KT 080V150 9SM BKN090 BKN110 03/00 A3013 RMK SLP219
Conditions at: CYLW (KELOWNA APT , BC, CA) observed 1400 UTC 28 November 2020
Temperature: 3.0°C (37°F)
Dewpoint: 0.0°C (32°F) [RH = 81%]
Pressure (altimeter): 30.13 inches Hg (1020.4 mb)
[Sea-level pressure: 1021.9 mb]
Winds: from the ESE (110 degrees) at 6 MPH (5 knots; 2.6 m/s)
Visibility: 9 miles (14 km)
Ceiling: 9000 feet AGL
Clouds: broken clouds at 9000 feet AGL
broken clouds at 11000 feet AGL
Weather: no significant weather observed at this time

METAR text: CYLW 281300Z AUTO VRB02KT 9SM BKN075 OVC091 02/M00 A3009 RMK SLP211
Conditions at: CYLW (KELOWNA APT , BC, CA) observed 1300 UTC 28 November 2020
Temperature: 2.0°C (36°F)
Dewpoint: 0.0°C (32°F) [RH = 87%]
Pressure (altimeter): 30.09 inches Hg (1019.0 mb)
[Sea-level pressure: 1021.1 mb]
Winds: variable direction winds at 2 MPH (2 knots; 1.0 m/s)
Visibility: 9 miles (14 km)
Ceiling: 7500 feet AGL
Clouds: broken clouds at 7500 feet AGL
overcast cloud deck at 9100 feet AGL
Weather: no significant weather observed at this time

METAR text: CYLW 281200Z AUTO 16004KT 9SM BKN110 03/M00 A3007 RMK SLP200
Conditions at: CYLW (KELOWNA APT , BC, CA) observed 1200 UTC 28 November 2020
Temperature: 3.0°C (37°F)
Dewpoint: 0.0°C (32°F) [RH = 81%]
Pressure (altimeter): 30.07 inches Hg (1018.4 mb)
[Sea-level pressure: 1020.0 mb]
Winds: from the SSE (160 degrees) at 5 MPH (4 knots; 2.1 m/s)
Visibility: 9 miles (14 km)
Ceiling: 11000 feet AGL
Clouds: broken clouds at 11000 feet AGL
Weather: no significant weather observed at this time

METAR text: CYLW 281100Z AUTO 15007KT 9SM OVC095 03/M00 A3005 RMK SLP192
Conditions at: CYLW (KELOWNA APT , BC, CA) observed 1100 UTC 28 November 2020
Temperature: 3.0°C (37°F)
Dewpoint: 0.0°C (32°F) [RH = 81%]
Pressure (altimeter): 30.05 inches Hg (1017.7 mb)
[Sea-level pressure: 1019.2 mb]
Winds: from the SSE (150 degrees) at 8 MPH (7 knots; 3.6 m/s)
Visibility: 9 miles (14 km)
Ceiling: 9500 feet AGL
Clouds: overcast cloud deck at 9500 feet AGL
Weather: no significant weather observed at this time

METAR text: CYLW 281000Z AUTO 14003KT 110V190 9SM CLR 02/M01 A3002 RMK SLP186
Conditions at: CYLW (KELOWNA APT , BC, CA) observed 1000 UTC 28 November 2020
Temperature: 2.0°C (36°F)
Dewpoint: -1.0°C (30°F) [RH = 80%]
Pressure (altimeter): 30.02 inches Hg (1016.7 mb)
[Sea-level pressure: 1018.6 mb]
Winds: from the SE (140 degrees) at 3 MPH (3 knots; 1.5 m/s)
Visibility: 9 miles (14 km)
Ceiling: at least 12,000 feet AGL
Clouds: sky clear below 12,000 feet AGL
Weather: no significant weather observed at this time

METAR text: CYLW 280900Z AUTO 09004KT 070V170 9SM BKN050 BKN060 04/M00 A3001 RMK SLP180
Conditions at: CYLW (KELOWNA APT , BC, CA) observed 0900 UTC 28 November 2020
Temperature: 4.0°C (39°F)
Dewpoint: 0.0°C (32°F) [RH = 75%]
Pressure (altimeter): 30.01 inches Hg (1016.3 mb)
[Sea-level pressure: 1018.0 mb]
Winds: from the E (90 degrees) at 5 MPH (4 knots; 2.1 m/s)
Visibility: 9 miles (14 km)
Ceiling: 5000 feet AGL
Clouds: broken clouds at 5000 feet AGL
broken clouds at 6000 feet AGL
Weather: no significant weather observed at this time

METAR text: CYLW 280800Z AUTO 35004KT 300V100 9SM OVC055 03/M00 A3001 RMK SLP176
Conditions at: CYLW (KELOWNA APT , BC, CA) observed 0800 UTC 28 November 2020
Temperature: 3.0°C (37°F)
Dewpoint: 0.0°C (32°F) [RH = 81%]
Pressure (altimeter): 30.01 inches Hg (1016.3 mb)
[Sea-level pressure: 1017.6 mb]
Winds: from the N (350 degrees) at 5 MPH (4 knots; 2.1 m/s)
Visibility: 9 miles (14 km)
Ceiling: 5500 feet AGL
Clouds: overcast cloud deck at 5500 feet AGL
Weather: no significant weather observed at this time

METAR text: CYLW 280700Z AUTO VRB02KT 9SM BKN065 02/M00 A2999 RMK SLP173
Conditions at: CYLW (KELOWNA APT , BC, CA) observed 0700 UTC 28 November 2020
Temperature: 2.0°C (36°F)
Dewpoint: 0.0°C (32°F) [RH = 87%]
Pressure (altimeter): 29.99 inches Hg (1015.7 mb)
[Sea-level pressure: 1017.3 mb]
Winds: variable direction winds at 2 MPH (2 knots; 1.0 m/s)
Visibility: 9 miles (14 km)
Ceiling: 6500 feet AGL
Clouds: broken clouds at 6500 feet AGL
Weather: no significant weather observed at this time

METAR text: CYLW 280600Z AUTO 00000KT 9SM OVC035 04/M00 A3001 RMK SLP176
Conditions at: CYLW (KELOWNA APT , BC, CA) observed 0600 UTC 28 November 2020
Temperature: 4.0°C (39°F)
Dewpoint: 0.0°C (32°F) [RH = 75%]
Pressure (altimeter): 30.01 inches Hg (1016.3 mb)
[Sea-level pressure: 1017.6 mb]
Winds: calm
Visibility: 9 miles (14 km)
Ceiling: 3500 feet AGL
Clouds: overcast cloud deck at 3500 feet AGL
Weather: no significant weather observed at this time

METAR text: CYLW 280500Z AUTO 00000KT 9SM OVC037 03/M00 A3001 RMK SLP178
Conditions at: CYLW (KELOWNA APT , BC, CA) observed 0500 UTC 28 November 2020
Temperature: 3.0°C (37°F)
Dewpoint: 0.0°C (32°F) [RH = 81%]
Pressure (altimeter): 30.01 inches Hg (1016.3 mb)
[Sea-level pressure: 1017.8 mb]
Winds: calm
Visibility: 9 miles (14 km)
Ceiling: 3700 feet AGL
Clouds: overcast cloud deck at 3700 feet AGL
Weather: no significant weather observed at this time

METAR text: CYLW 280400Z AUTO 12003KT 100V260 9SM FEW030 BKN037 OVC045 04/M00 A3000 RMK SLP172
Conditions at: CYLW (KELOWNA APT , BC, CA) observed 0400 UTC 28 November 2020
Temperature: 4.0°C (39°F)
Dewpoint: 0.0°C (32°F) [RH = 75%]
Pressure (altimeter): 30.00 inches Hg (1016.0 mb)
[Sea-level pressure: 1017.2 mb]
Winds: from the ESE (120 degrees) at 3 MPH (3 knots; 1.5 m/s)
Visibility: 9 miles (14 km)
Ceiling: 3700 feet AGL
Clouds: few clouds at 3000 feet AGL
broken clouds at 3700 feet AGL
overcast cloud deck at 4500 feet AGL
Weather: no significant weather observed at this time

METAR text: CYLW 280300Z AUTO 15004KT 060V170 9SM OVC032 04/00 A3001 RMK SLP179
Conditions at: CYLW (KELOWNA APT , BC, CA) observed 0300 UTC 28 November 2020
Temperature: 4.0°C (39°F)
Dewpoint: 0.0°C (32°F) [RH = 75%]
Pressure (altimeter): 30.01 inches Hg (1016.3 mb)
[Sea-level pressure: 1017.9 mb]
Winds: from the SSE (150 degrees) at 5 MPH (4 knots; 2.1 m/s)
Visibility: 9 miles (14 km)
Ceiling: 3200 feet AGL
Clouds: overcast cloud deck at 3200 feet AGL
Weather: no significant weather observed at this time

METAR text: CYLW 280200Z AUTO 13005KT 9SM BKN034 BKN041 BKN240 04/M00 A3002 RMK SLP183
Conditions at: CYLW (KELOWNA APT , BC, CA) observed 0200 UTC 28 November 2020
Temperature: 4.0°C (39°F)
Dewpoint: 0.0°C (32°F) [RH = 75%]
Pressure (altimeter): 30.02 inches Hg (1016.7 mb)
[Sea-level pressure: 1018.3 mb]
Winds: from the SE (130 degrees) at 6 MPH (5 knots; 2.6 m/s)
Visibility: 9 miles (14 km)
Ceiling: 3400 feet AGL
Clouds: broken clouds at 3400 feet AGL
broken clouds at 4100 feet AGL
broken clouds at 24000 feet AGL
Weather: no significant weather observed at this time

METAR text: CYLW 280100Z AUTO 14006KT 9SM CLR 03/M00 A3003 RMK SLP189
Conditions at: CYLW (KELOWNA APT , BC, CA) observed 0100 UTC 28 November 2020
Temperature: 3.0°C (37°F)
Dewpoint: 0.0°C (32°F) [RH = 81%]
Pressure (altimeter): 30.03 inches Hg (1017.0 mb)
[Sea-level pressure: 1018.9 mb]
Winds: from the SE (140 degrees) at 7 MPH (6 knots; 3.1 m/s)
Visibility: 9 miles (14 km)
Ceiling: at least 12,000 feet AGL
Clouds: sky clear below 12,000 feet AGL
Weather: no significant weather observed at this time

METAR text: CYLW 280000Z AUTO 17007KT 9SM FEW042 03/M00 A3007 RMK SLP199
Conditions at: CYLW (KELOWNA APT , BC, CA) observed 0000 UTC 28 November 2020
Temperature: 3.0°C (37°F)
Dewpoint: 0.0°C (32°F) [RH = 81%]
Pressure (altimeter): 30.07 inches Hg (1018.4 mb)
[Sea-level pressure: 1019.9 mb]
Winds: from the S (170 degrees) at 8 MPH (7 knots; 3.6 m/s)
Visibility: 9 miles (14 km)
Ceiling: at least 12,000 feet AGL
Clouds: few clouds at 4200 feet AGL
Weather: no significant weather observed at this time

METAR text: CYLW 272300Z AUTO 19008KT 9SM BKN075 05/M00 A3008 RMK SLP202
Conditions at: CYLW (KELOWNA APT , BC, CA) observed 2300 UTC 27 November 2020
Temperature: 5.0°C (41°F)
Dewpoint: 0.0°C (32°F) [RH = 70%]
Pressure (altimeter): 30.08 inches Hg (1018.7 mb)
[Sea-level pressure: 1020.2 mb]
Winds: from the S (190 degrees) at 9 MPH (8 knots; 4.1 m/s)
Visibility: 9 miles (14 km)
Ceiling: 7500 feet AGL
Clouds: broken clouds at 7500 feet AGL
Weather: no significant weather observed at this time

METAR text: CYLW 272200Z AUTO 16007KT 140V200 9SM SCT075 06/00 A3009 RMK SLP208
Conditions at: CYLW (KELOWNA APT , BC, CA) observed 2200 UTC 27 November 2020
Temperature: 6.0°C (43°F)
Dewpoint: 0.0°C (32°F) [RH = 65%]
Pressure (altimeter): 30.09 inches Hg (1019.0 mb)
[Sea-level pressure: 1020.8 mb]
Winds: from the SSE (160 degrees) at 8 MPH (7 knots; 3.6 m/s)
Visibility: 9 miles (14 km)
Ceiling: at least 12,000 feet AGL
Clouds: scattered clouds at 7500 feet AGL
Weather: no significant weather observed at this time

METAR text: CYLW 272100Z AUTO 18009KT 150V240 9SM OVC075 06/00 A3010 RMK SLP211
Conditions at: CYLW (KELOWNA APT , BC, CA) observed 2100 UTC 27 November 2020
Temperature: 6.0°C (43°F)
Dewpoint: 0.0°C (32°F) [RH = 65%]
Pressure (altimeter): 30.10 inches Hg (1019.4 mb)
[Sea-level pressure: 1021.1 mb]
Winds: from the S (180 degrees) at 10 MPH (9 knots; 4.6 m/s)
Visibility: 9 miles (14 km)
Ceiling: 7500 feet AGL
Clouds: overcast cloud deck at 7500 feet AGL
Weather: no significant weather observed at this time

METAR text: CYLW 272000Z AUTO 18007KT 150V230 9SM OVC075 06/00 A3013 RMK SLP217
Conditions at: CYLW (KELOWNA APT , BC, CA) observed 2000 UTC 27 November 2020
Temperature: 6.0°C (43°F)
Dewpoint: 0.0°C (32°F) [RH = 65%]
Pressure (altimeter): 30.13 inches Hg (1020.4 mb)
[Sea-level pressure: 1021.7 mb]
Winds: from the S (180 degrees) at 8 MPH (7 knots; 3.6 m/s)
Visibility: 9 miles (14 km)
Ceiling: 7500 feet AGL
Clouds: overcast cloud deck at 7500 feet AGL
Weather: no significant weather observed at this time

METAR text: CYLW 271900Z AUTO 11007KT 9SM OVC075 06/01 A3016 RMK SLP226
Conditions at: CYLW (KELOWNA APT , BC, CA) observed 1900 UTC 27 November 2020
Temperature: 6.0°C (43°F)
Dewpoint: 1.0°C (34°F) [RH = 70%]
Pressure (altimeter): 30.16 inches Hg (1021.4 mb)
[Sea-level pressure: 1022.6 mb]
Winds: from the ESE (110 degrees) at 8 MPH (7 knots; 3.6 m/s)
Visibility: 9 miles (14 km)
Ceiling: 7500 feet AGL
Clouds: overcast cloud deck at 7500 feet AGL
Weather: no significant weather observed at this time

METAR text: CYLW 271800Z AUTO 16007KT 120V190 9SM OVC075 05/01 A3016 RMK SLP231
Conditions at: CYLW (KELOWNA APT , BC, CA) observed 1800 UTC 27 November 2020
Temperature: 5.0°C (41°F)
Dewpoint: 1.0°C (34°F) [RH = 75%]
Pressure (altimeter): 30.16 inches Hg (1021.4 mb)
[Sea-level pressure: 1023.1 mb]
Winds: from the SSE (160 degrees) at 8 MPH (7 knots; 3.6 m/s)
Visibility: 9 miles (14 km)
Ceiling: 7500 feet AGL
Clouds: overcast cloud deck at 7500 feet AGL
Weather: no significant weather observed at this time

METAR text: CYLW 271700Z AUTO 13007KT 9SM OVC075 05/01 A3016 RMK SLP234
Conditions at: CYLW (KELOWNA APT , BC, CA) observed 1700 UTC 27 November 2020
Temperature: 5.0°C (41°F)
Dewpoint: 1.0°C (34°F) [RH = 75%]
Pressure (altimeter): 30.16 inches Hg (1021.4 mb)
[Sea-level pressure: 1023.4 mb]
Winds: from the SE (130 degrees) at 8 MPH (7 knots; 3.6 m/s)
Visibility: 9 miles (14 km)
Ceiling: 7500 feet AGL
Clouds: overcast cloud deck at 7500 feet AGL
Weather: no significant weather observed at this time

METAR text: CYLW 271600Z AUTO 14009KT 9SM OVC075 04/00 A3017 RMK SLP237
Conditions at: CYLW (KELOWNA APT , BC, CA) observed 1600 UTC 27 November 2020
Temperature: 4.0°C (39°F)
Dewpoint: 0.0°C (32°F) [RH = 75%]
Pressure (altimeter): 30.17 inches Hg (1021.8 mb)
[Sea-level pressure: 1023.7 mb]
Winds: from the SE (140 degrees) at 10 MPH (9 knots; 4.6 m/s)
Visibility: 9 miles (14 km)
Ceiling: 7500 feet AGL
Clouds: overcast cloud deck at 7500 feet AGL
Weather: no significant weather observed at this time

METAR text: CYLW 271500Z AUTO 14009KT 9SM OVC075 04/00 A3017 RMK SLP235
Conditions at: CYLW (KELOWNA APT , BC, CA) observed 1500 UTC 27 November 2020
Temperature: 4.0°C (39°F)
Dewpoint: 0.0°C (32°F) [RH = 75%]
Pressure (altimeter): 30.17 inches Hg (1021.8 mb)
[Sea-level pressure: 1023.5 mb]
Winds: from the SE (140 degrees) at 10 MPH (9 knots; 4.6 m/s)
Visibility: 9 miles (14 km)
Ceiling: 7500 feet AGL
Clouds: overcast cloud deck at 7500 feet AGL
Weather: no significant weather observed at this time

METAR text: CYLW 271400Z AUTO 15007KT 9SM OVC070 04/00 A3018 RMK SLP239
Conditions at: CYLW (KELOWNA APT , BC, CA) observed 1400 UTC 27 November 2020
Temperature: 4.0°C (39°F)
Dewpoint: 0.0°C (32°F) [RH = 75%]
Pressure (altimeter): 30.18 inches Hg (1022.1 mb)
[Sea-level pressure: 1023.9 mb]
Winds: from the SSE (150 degrees) at 8 MPH (7 knots; 3.6 m/s)
Visibility: 9 miles (14 km)
Ceiling: 7000 feet AGL
Clouds: overcast cloud deck at 7000 feet AGL
Weather: no significant weather observed at this time

Forecast for: CYLW (KELOWNA APT , BC, CA)
Text: TAF CYLW 290038Z 2901/2913 36005KT P6SM SCT060 SCT200 RMK FCST BASED ON AUTO OBS. NXT FCST BY 290700Z
Forecast period: 0100 to 1300 UTC 29 November 2020
Forecast type: FROM: standard forecast or significant change
Winds: from the N (360 degrees) at 6 MPH (5 knots; 2.6 m/s)
Visibility: 6 or more miles (10+ km)
Ceiling: at least 12,000 feet AGL
Clouds: scattered clouds at 6000 feet AGL
scattered clouds at 20000 feet AGL
Weather: no significant weather forecast for this period